Time,TemperatureF,DewpointF,PressureIn,WindDirection,WindDirectionDegrees,WindSpeedMPH,WindSpeedGustMPH,Humidity,HourlyPrecipIn,Conditions,Clouds,dailyrainin,SoftwareType,DateUTC
2013-02-24 00:01:00,33.0,29.0,30.00,NNW,340,5.0,10.0,84,0.00,,,0.00,,2013-02-24 08:01:00,
2013-02-24 00:11:00,33.0,29.0,30.00,NNW,340,5.0,10.0,84,0.00,,,0.00,,2013-02-24 08:11:00,
2013-02-24 00:22:00,34.0,29.0,29.99,North,355,3.0,8.0,83,0.00,,,0.00,,2013-02-24 08:22:00,
2013-02-24 00:31:00,33.0,28.0,29.98,North,360,10.0,15.0,83,0.00,,,0.00,,2013-02-24 08:31:00,
2013-02-24 00:41:00,33.0,28.0,29.98,North,360,10.0,15.0,83,0.00,,,0.00,,2013-02-24 08:41:00,
2013-02-24 00:53:00,35.0,29.0,29.97,North,351,7.0,12.0,77,0.00,,,0.00,,2013-02-24 08:53:00,
2013-02-24 01:01:00,36.0,27.0,29.98,North,355,7.0,11.0,70,0.00,,,0.00,,2013-02-24 09:01:00,
2013-02-24 01:11:00,36.0,27.0,29.98,North,355,7.0,11.0,70,0.00,,,0.00,,2013-02-24 09:11:00,
2013-02-24 01:21:00,35.0,28.0,29.98,North,355,7.0,14.0,74,0.00,,,0.00,,2013-02-24 09:21:00,
2013-02-24 01:31:00,36.0,28.0,29.98,NNE,14,0.0,12.0,71,0.00,,,0.00,,2013-02-24 09:31:00,
2013-02-24 01:41:00,36.0,28.0,29.98,NNE,14,0.0,12.0,71,0.00,,,0.00,,2013-02-24 09:41:00,
2013-02-24 01:51:00,35.0,28.0,29.98,NE,39,0.0,3.0,74,0.00,,,0.00,,2013-02-24 09:51:00,
2013-02-24 02:01:00,33.0,27.0,29.98,North,9,1.0,4.0,78,0.00,,,0.00,,2013-02-24 10:01:00,
2013-02-24 02:11:00,32.0,27.0,29.97,NNW,346,4.0,7.0,81,0.00,,,0.00,,2013-02-24 10:11:00,
2013-02-24 02:21:00,32.0,27.0,29.97,NNW,346,4.0,7.0,81,0.00,,,0.00,,2013-02-24 10:21:00,
2013-02-24 02:31:00,33.0,28.0,29.97,NW,320,6.0,8.0,82,0.00,,,0.00,,2013-02-24 10:31:00,
2013-02-24 02:41:00,33.0,28.0,29.97,NW,320,6.0,8.0,82,0.00,,,0.00,,2013-02-24 10:41:00,
2013-02-24 02:52:00,34.0,29.0,29.97,NNW,336,6.0,11.0,81,0.00,,,0.00,,2013-02-24 10:52:00,
2013-02-24 03:01:00,34.0,29.0,29.96,North,5,6.0,11.0,81,0.00,,,0.00,,2013-02-24 11:01:00,
2013-02-24 03:11:00,34.0,29.0,29.96,North,5,6.0,11.0,81,0.00,,,0.00,,2013-02-24 11:11:00,
2013-02-24 03:21:00,34.0,29.0,29.97,NNW,347,8.0,13.0,81,0.00,,,0.00,,2013-02-24 11:21:00,
2013-02-24 03:31:00,33.0,28.0,29.97,North,351,2.0,9.0,80,0.00,,,0.00,,2013-02-24 11:31:00,
2013-02-24 03:41:00,33.0,28.0,29.97,North,351,2.0,9.0,80,0.00,,,0.00,,2013-02-24 11:41:00,
2013-02-24 03:52:00,33.0,28.0,29.98,North,9,0.0,2.0,81,0.00,,,0.00,,2013-02-24 11:52:00,
2013-02-24 04:01:00,31.0,27.0,29.98,North,5,0.0,4.0,84,0.00,,,0.00,,2013-02-24 12:01:00,
2013-02-24 04:11:00,31.0,27.0,29.98,North,5,0.0,4.0,84,0.00,,,0.00,,2013-02-24 12:11:00,
2013-02-24 04:21:00,31.0,27.0,29.98,South,184,2.0,4.0,85,0.00,,,0.00,,2013-02-24 12:21:00,
2013-02-24 04:31:00,30.0,26.0,29.98,South,184,0.0,3.0,86,0.00,,,0.00,,2013-02-24 12:31:00,
2013-02-24 04:44:00,30.0,26.0,29.98,South,184,0.0,3.0,86,0.00,,,0.00,,2013-02-24 12:44:00,
2013-02-24 04:55:00,29.0,25.0,29.99,NNE,17,2.0,3.0,85,0.00,,,0.00,,2013-02-24 12:55:00,
2013-02-24 05:12:00,29.0,25.0,29.99,North,360,2.0,4.0,86,0.00,,,0.00,,2013-02-24 13:12:00,
2013-02-24 05:23:00,29.0,26.0,29.99,North,360,2.0,5.0,88,0.00,,,0.00,,2013-02-24 13:23:00,
2013-02-24 05:32:00,28.0,25.0,29.99,North,351,0.0,4.0,88,0.00,,,0.00,,2013-02-24 13:32:00,
2013-02-24 05:42:00,28.0,25.0,29.99,North,351,0.0,4.0,88,0.00,,,0.00,,2013-02-24 13:42:00,
2013-02-24 05:53:00,28.0,24.0,30.00,North,351,0.0,2.0,86,0.00,,,0.00,,2013-02-24 13:53:00,
2013-02-24 06:01:00,30.0,25.0,30.00,North,5,3.0,6.0,82,0.00,,,0.00,,2013-02-24 14:01:00,
2013-02-24 06:11:00,28.0,24.0,30.00,North,360,3.0,4.0,83,0.00,,,0.00,,2013-02-24 14:11:00,
2013-02-24 06:22:00,28.0,24.0,30.00,North,360,3.0,4.0,83,0.00,,,0.00,,2013-02-24 14:22:00,
2013-02-24 06:32:00,28.0,24.0,30.01,North,9,0.0,2.0,83,0.00,,,0.00,,2013-02-24 14:32:00,
2013-02-24 06:42:00,28.0,24.0,30.01,North,9,0.0,2.0,83,0.00,,,0.00,,2013-02-24 14:42:00,
2013-02-24 06:53:00,28.0,24.0,30.02,North,9,0.0,3.0,85,0.00,,,0.00,,2013-02-24 14:53:00,
2013-02-24 07:01:00,28.0,24.0,30.03,North,9,2.0,3.0,86,0.00,,,0.00,,2013-02-24 15:01:00,
2013-02-24 07:11:00,29.0,25.0,30.03,North,9,3.0,5.0,83,0.00,,,0.00,,2013-02-24 15:11:00,
2013-02-24 07:22:00,29.0,25.0,30.03,North,9,3.0,5.0,83,0.00,,,0.00,,2013-02-24 15:22:00,
2013-02-24 07:31:00,29.0,25.0,30.03,North,5,2.0,4.0,83,0.00,,,0.00,,2013-02-24 15:31:00,
2013-02-24 07:41:00,29.0,25.0,30.03,North,5,2.0,4.0,83,0.00,,,0.00,,2013-02-24 15:41:00,
2013-02-24 07:52:00,29.0,23.0,30.04,North,5,2.0,5.0,77,0.00,,,0.00,,2013-02-24 15:52:00,
2013-02-24 08:01:00,31.0,23.0,30.04,NNE,23,0.0,2.0,71,0.00,,,0.00,,2013-02-24 16:01:00,
2013-02-24 08:11:00,32.0,19.0,30.05,WNW,294,1.0,7.0,58,0.00,,,0.00,,2013-02-24 16:11:00,
2013-02-24 08:21:00,32.0,19.0,30.05,WNW,294,1.0,7.0,58,0.00,,,0.00,,2013-02-24 16:21:00,
2013-02-24 08:31:00,34.0,13.0,30.05,SSE,164,4.0,11.0,42,0.00,,,0.00,,2013-02-24 16:31:00,
2013-02-24 08:41:00,34.0,13.0,30.05,SSE,164,4.0,11.0,42,0.00,,,0.00,,2013-02-24 16:41:00,
2013-02-24 08:52:00,35.0,11.0,30.05,South,171,7.0,14.0,36,0.00,,,0.00,,2013-02-24 16:52:00,
2013-02-24 09:01:00,36.0,10.0,30.05,SSE,161,4.0,14.0,34,0.00,,,0.00,,2013-02-24 17:01:00,
2013-02-24 09:11:00,36.0,10.0,30.05,SSE,161,4.0,14.0,34,0.00,,,0.00,,2013-02-24 17:11:00,
2013-02-24 09:21:00,36.0,11.0,30.06,South,177,5.0,10.0,35,0.00,,,0.00,,2013-02-24 17:21:00,
2013-02-24 09:31:00,36.0,10.0,30.07,WSW,254,5.0,14.0,33,0.00,,,0.00,,2013-02-24 17:31:00,
2013-02-24 09:41:00,36.0,10.0,30.07,WSW,254,5.0,14.0,33,0.00,,,0.00,,2013-02-24 17:41:00,
2013-02-24 09:52:00,37.0,11.0,30.07,SE,140,4.0,13.0,33,0.00,,,0.00,,2013-02-24 17:52:00,
2013-02-24 10:01:00,37.0,10.0,30.07,East,98,5.0,12.0,32,0.00,,,0.00,,2013-02-24 18:01:00,
2013-02-24 10:11:00,37.0,10.0,30.07,East,98,5.0,12.0,32,0.00,,,0.00,,2013-02-24 18:11:00,
2013-02-24 10:21:00,37.0,9.0,30.08,NNW,338,7.0,11.0,31,0.00,,,0.00,,2013-02-24 18:21:00,
2013-02-24 10:31:00,38.0,9.0,30.07,South,183,4.0,11.0,30,0.00,,,0.00,,2013-02-24 18:31:00,
2013-02-24 10:41:00,38.0,9.0,30.07,South,183,4.0,11.0,30,0.00,,,0.00,,2013-02-24 18:41:00,
2013-02-24 10:52:00,38.0,9.0,30.08,WNW,290,3.0,14.0,29,0.00,,,0.00,,2013-02-24 18:52:00,
2013-02-24 11:01:00,39.0,9.0,30.08,WSW,256,6.0,12.0,28,0.00,,,0.00,,2013-02-24 19:01:00,
2013-02-24 11:11:00,39.0,9.0,30.08,WSW,256,6.0,12.0,28,0.00,,,0.00,,2013-02-24 19:11:00,
2013-02-24 11:21:00,39.0,9.0,30.08,West,267,5.0,13.0,28,0.00,,,0.00,,2013-02-24 19:21:00,
2013-02-24 11:31:00,40.0,10.0,30.08,West,273,5.0,14.0,29,0.00,,,0.00,,2013-02-24 19:31:00,
2013-02-24 11:41:00,40.0,10.0,30.08,West,273,5.0,14.0,29,0.00,,,0.00,,2013-02-24 19:41:00,
2013-02-24 11:52:00,40.0,11.0,30.08,West,269,3.0,14.0,30,0.00,,,0.00,,2013-02-24 19:52:00,
2013-02-24 12:01:00,41.0,10.0,30.08,SSW,197,5.0,13.0,27,0.00,,,0.00,,2013-02-24 20:01:00,
2013-02-24 12:11:00,41.0,10.0,30.08,SSW,197,5.0,13.0,27,0.00,,,0.00,,2013-02-24 20:11:00,
2013-02-24 12:21:00,41.0,10.0,30.07,North,350,7.0,18.0,27,0.00,,,0.00,,2013-02-24 20:21:00,
2013-02-24 12:31:00,42.0,12.0,30.07,SE,145,4.0,10.0,29,0.00,,,0.00,,2013-02-24 20:31:00,
2013-02-24 12:41:00,42.0,12.0,30.07,SE,145,4.0,10.0,29,0.00,,,0.00,,2013-02-24 20:41:00,
2013-02-24 12:52:00,41.0,9.0,30.07,ENE,72,6.0,14.0,26,0.00,,,0.00,,2013-02-24 20:52:00,
2013-02-24 13:01:00,42.0,10.0,30.07,SSW,212,5.0,11.0,26,0.00,,,0.00,,2013-02-24 21:01:00,
2013-02-24 13:11:00,42.0,10.0,30.07,SSW,212,5.0,11.0,26,0.00,,,0.00,,2013-02-24 21:11:00,
2013-02-24 13:21:00,42.0,9.0,30.06,SSW,200,5.0,14.0,25,0.00,,,0.00,,2013-02-24 21:21:00,
2013-02-24 13:31:00,43.0,9.0,30.06,NNE,26,5.0,15.0,24,0.00,,,0.00,,2013-02-24 21:31:00,
2013-02-24 13:41:00,43.0,9.0,30.06,NNE,26,5.0,15.0,24,0.00,,,0.00,,2013-02-24 21:41:00,
2013-02-24 13:52:00,44.0,11.0,30.06,South,184,5.0,13.0,26,0.00,,,0.00,,2013-02-24 21:52:00,
2013-02-24 14:01:00,44.0,10.0,30.05,South,184,5.0,13.0,25,0.00,,,0.00,,2013-02-24 22:01:00,
2013-02-24 14:11:00,44.0,10.0,30.05,South,184,5.0,13.0,25,0.00,,,0.00,,2013-02-24 22:11:00,
2013-02-24 14:21:00,45.0,11.0,30.05,SSE,151,3.0,18.0,25,0.00,,,0.00,,2013-02-24 22:21:00,
2013-02-24 14:31:00,44.0,10.0,30.05,NNW,340,3.0,15.0,24,0.00,,,0.00,,2013-02-24 22:31:00,
2013-02-24 14:41:00,44.0,10.0,30.05,NNW,340,3.0,15.0,24,0.00,,,0.00,,2013-02-24 22:41:00,
2013-02-24 14:52:00,45.0,8.0,30.05,NNW,341,4.0,14.0,22,0.00,,,0.00,,2013-02-24 22:52:00,
2013-02-24 15:01:00,46.0,10.0,30.05,NW,311,1.0,11.0,23,0.00,,,0.00,,2013-02-24 23:01:00,
2013-02-24 15:11:00,46.0,10.0,30.05,NW,311,1.0,11.0,23,0.00,,,0.00,,2013-02-24 23:11:00,
2013-02-24 15:21:00,46.0,6.0,30.05,WNW,290,5.0,12.0,19,0.00,,,0.00,,2013-02-24 23:21:00,
2013-02-24 15:31:00,45.0,6.0,30.05,NNE,15,9.0,15.0,20,0.00,,,0.00,,2013-02-24 23:31:00,
2013-02-24 15:41:00,45.0,6.0,30.05,NNE,15,9.0,15.0,20,0.00,,,0.00,,2013-02-24 23:41:00,
2013-02-24 15:52:00,46.0,8.0,30.05,ESE,117,3.0,10.0,21,0.00,,,0.00,,2013-02-24 23:52:00,
2013-02-24 16:01:00,46.0,11.0,30.05,SW,232,5.0,10.0,24,0.00,,,0.00,,2013-02-25 00:01:00,
2013-02-24 16:11:00,46.0,11.0,30.05,SW,232,5.0,10.0,24,0.00,,,0.00,,2013-02-25 00:11:00,
2013-02-24 16:21:00,46.0,6.0,30.05,SE,143,6.0,10.0,19,0.00,,,0.00,,2013-02-25 00:21:00,
2013-02-24 16:31:00,46.0,7.0,30.05,North,11,3.0,12.0,20,0.00,,,0.00,,2013-02-25 00:31:00,
2013-02-24 16:41:00,46.0,7.0,30.05,North,11,3.0,12.0,20,0.00,,,0.00,,2013-02-25 00:41:00,
2013-02-24 16:51:00,46.0,6.0,30.05,SW,224,2.0,7.0,19,0.00,,,0.00,,2013-02-25 00:51:00,
2013-02-24 17:01:00,45.0,6.0,30.05,NNW,335,2.0,6.0,20,0.00,,,0.00,,2013-02-25 01:01:00,
2013-02-24 17:11:00,43.0,4.0,30.04,NNW,337,3.0,16.0,19,0.00,,,0.00,,2013-02-25 01:11:00,
2013-02-24 17:21:00,43.0,4.0,30.04,NNW,337,3.0,16.0,19,0.00,,,0.00,,2013-02-25 01:21:00,
2013-02-24 17:31:00,43.0,8.0,30.04,North,355,0.0,5.0,23,0.00,,,0.00,,2013-02-25 01:31:00,
2013-02-24 17:41:00,43.0,8.0,30.04,North,355,0.0,5.0,23,0.00,,,0.00,,2013-02-25 01:41:00,
2013-02-24 17:52:00,42.0,6.0,30.05,WSW,246,1.0,5.0,22,0.00,,,0.00,,2013-02-25 01:52:00,
2013-02-24 18:01:00,41.0,8.0,30.05,NNW,329,0.0,5.0,25,0.00,,,0.00,,2013-02-25 02:01:00,
2013-02-24 18:11:00,40.0,6.0,30.06,NNW,343,3.0,6.0,24,0.00,,,0.00,,2013-02-25 02:11:00,
2013-02-24 18:21:00,40.0,6.0,30.06,NNW,343,3.0,6.0,24,0.00,,,0.00,,2013-02-25 02:21:00,
2013-02-24 18:31:00,40.0,5.0,30.07,North,9,1.0,3.0,23,0.00,,,0.00,,2013-02-25 02:31:00,
2013-02-24 18:41:00,40.0,5.0,30.07,North,9,1.0,3.0,23,0.00,,,0.00,,2013-02-25 02:41:00,
2013-02-24 18:52:00,40.0,5.0,30.07,North,5,1.0,3.0,23,0.00,,,0.00,,2013-02-25 02:52:00,
2013-02-24 19:01:00,41.0,4.0,30.07,ENE,57,1.0,8.0,21,0.00,,,0.00,,2013-02-25 03:01:00,
2013-02-24 19:11:00,41.0,4.0,30.07,ENE,57,1.0,8.0,21,0.00,,,0.00,,2013-02-25 03:11:00,
2013-02-24 19:21:00,41.0,2.0,30.07,NW,321,3.0,8.0,19,0.00,,,0.00,,2013-02-25 03:21:00,
2013-02-24 19:31:00,41.0,2.0,30.08,SSW,210,2.0,6.0,19,0.00,,,0.00,,2013-02-25 03:31:00,
2013-02-24 19:41:00,41.0,2.0,30.08,SSW,210,2.0,6.0,19,0.00,,,0.00,,2013-02-25 03:41:00,
2013-02-24 19:52:00,41.0,2.0,30.09,NW,308,1.0,5.0,19,0.00,,,0.00,,2013-02-25 03:52:00,
2013-02-24 20:01:00,40.0,3.0,30.09,North,360,0.0,6.0,21,0.00,,,0.00,,2013-02-25 04:01:00,
2013-02-24 20:11:00,40.0,3.0,30.09,North,360,0.0,6.0,21,0.00,,,0.00,,2013-02-25 04:11:00,
2013-02-24 20:21:00,40.0,2.0,30.09,NNW,345,0.0,8.0,20,0.00,,,0.00,,2013-02-25 04:21:00,
2013-02-24 20:31:00,39.0,3.0,30.10,NNE,19,2.0,5.0,22,0.00,,,0.00,,2013-02-25 04:31:00,
2013-02-24 20:41:00,39.0,3.0,30.10,NNE,19,2.0,5.0,22,0.00,,,0.00,,2013-02-25 04:41:00,
2013-02-24 20:52:00,38.0,8.0,30.10,NNW,348,3.0,5.0,28,0.00,,,0.00,,2013-02-25 04:52:00,
2013-02-24 21:01:00,37.0,7.0,30.10,North,355,1.0,4.0,28,0.00,,,0.00,,2013-02-25 05:01:00,
2013-02-24 21:11:00,37.0,7.0,30.10,North,355,1.0,4.0,28,0.00,,,0.00,,2013-02-25 05:11:00,
2013-02-24 21:21:00,37.0,5.0,30.11,WSW,253,0.0,2.0,26,0.00,,,0.00,,2013-02-25 05:21:00,
2013-02-24 21:31:00,38.0,3.0,30.12,West,274,1.0,2.0,22,0.00,,,0.00,,2013-02-25 05:31:00,
2013-02-24 21:41:00,38.0,3.0,30.12,West,274,1.0,2.0,22,0.00,,,0.00,,2013-02-25 05:41:00,
2013-02-24 21:52:00,37.0,5.0,30.13,NNE,32,0.0,5.0,26,0.00,,,0.00,,2013-02-25 05:52:00,
2013-02-24 22:02:00,37.0,5.0,30.13,North,360,2.0,6.0,26,0.00,,,0.00,,2013-02-25 06:02:00,
2013-02-24 22:11:00,37.0,5.0,30.13,North,360,2.0,6.0,26,0.00,,,0.00,,2013-02-25 06:11:00,
2013-02-24 22:21:00,36.0,8.0,30.13,North,360,0.0,3.0,31,0.00,,,0.00,,2013-02-25 06:21:00,
2013-02-24 22:31:00,35.0,5.0,30.13,West,271,1.0,5.0,28,0.00,,,0.00,,2013-02-25 06:31:00,
2013-02-24 22:41:00,35.0,5.0,30.13,West,271,1.0,5.0,28,0.00,,,0.00,,2013-02-25 06:41:00,
2013-02-24 22:51:00,36.0,6.0,30.13,SW,230,2.0,4.0,28,0.00,,,0.00,,2013-02-25 06:51:00,
2013-02-24 23:01:00,36.0,5.0,30.14,NE,46,0.0,2.0,27,0.00,,,0.00,,2013-02-25 07:01:00,
2013-02-24 23:11:00,34.0,8.0,30.14,NNW,346,4.0,6.0,33,0.00,,,0.00,,2013-02-25 07:11:00,
2013-02-24 23:21:00,34.0,8.0,30.14,NNW,346,4.0,6.0,33,0.00,,,0.00,,2013-02-25 07:21:00,
2013-02-24 23:31:00,34.0,7.0,30.14,North,360,1.0,5.0,32,0.00,,,0.00,,2013-02-25 07:31:00,
2013-02-24 23:41:00,34.0,7.0,30.14,North,360,1.0,5.0,32,0.00,,,0.00,,2013-02-25 07:41:00,
2013-02-24 23:52:00,33.0,6.0,30.14,NNE,17,2.0,6.0,32,0.00,,,0.00,,2013-02-25 07:52:00,